Mansfield, Texas
Current Conditions -  °F | °C
As of 10:53 AM on Sunday 21 Dec 2014 (Local Time) from KGKY Reporting Station
Overcast Overcast  
Wind Chill: 50°   Ceiling: 1500
Heat Index: 50°   Visibility: 10mi
Dew Point: 43°   Wind: 10mph
Humidity: 77%   Direction: 140°SE
Pressure: 30.06"   Gusts: NA
Location:  32.56°N, 97.14°W
Report Text: KGKY 211653Z 14009KT 10SM OVC015 10/06 A3006 RMK AO2 SLP177 T01000061
Loading
Personal Weather Stations






























Interactive Weather Map New forecast layout! Learn more

10-Day Weather Forecast

Advertisements
Track Severe Weather on mobile